sensor_id;sensor_type;location;lat;lon;timestamp;pressure;altitude;pressure_sealevel;temperature;humidity
28027;BME280;15344;52.342;-1.290;2023-02-27T00:00:03;101854.61;;;4.60;65.06
28027;BME280;15344;52.342;-1.290;2023-02-27T00:02:27;101852.77;;;4.36;66.64
28027;BME280;15344;52.342;-1.290;2023-02-27T00:04:52;101852.22;;;5.94;62.94
28027;BME280;15344;52.342;-1.290;2023-02-27T00:07:18;101853.28;;;6.09;61.02
28027;BME280;15344;52.342;-1.290;2023-02-27T00:09:44;101847.88;;;5.84;61.33
28027;BME280;15344;52.342;-1.290;2023-02-27T00:12:10;101854.71;;;6.34;61.05
28027;BME280;15344;52.342;-1.290;2023-02-27T00:14:35;101857.87;;;5.46;63.59
28027;BME280;15344;52.342;-1.290;2023-02-27T00:17:01;101855.98;;;6.53;62.14
28027;BME280;15344;52.342;-1.290;2023-02-27T00:19:26;101855.76;;;6.05;62.73
28027;BME280;15344;52.342;-1.290;2023-02-27T00:21:52;101860.30;;;4.69;66.00
28027;BME280;15344;52.342;-1.290;2023-02-27T00:24:17;101862.26;;;6.17;62.53
28027;BME280;15344;52.342;-1.290;2023-02-27T00:26:43;101862.40;;;5.60;64.63
28027;BME280;15344;52.342;-1.290;2023-02-27T00:29:09;101866.61;;;5.96;65.56
28027;BME280;15344;52.342;-1.290;2023-02-27T00:31:34;101868.00;;;6.84;64.61
28027;BME280;15344;52.342;-1.290;2023-02-27T00:33:59;101866.16;;;6.55;65.99
28027;BME280;15344;52.342;-1.290;2023-02-27T00:36:25;101860.21;;;5.68;69.27
28027;BME280;15344;52.342;-1.290;2023-02-27T00:38:50;101861.49;;;6.00;68.73
28027;BME280;15344;52.342;-1.290;2023-02-27T00:41:16;101864.95;;;6.53;66.80
28027;BME280;15344;52.342;-1.290;2023-02-27T00:43:41;101859.16;;;6.51;66.49
28027;BME280;15344;52.342;-1.290;2023-02-27T00:46:07;101863.11;;;6.81;64.81
28027;BME280;15344;52.342;-1.290;2023-02-27T00:48:33;101860.15;;;7.49;63.59
28027;BME280;15344;52.342;-1.290;2023-02-27T00:50:58;101865.25;;;6.86;64.83
28027;BME280;15344;52.342;-1.290;2023-02-27T00:53:24;101865.08;;;7.16;63.57
28027;BME280;15344;52.342;-1.290;2023-02-27T00:55:49;101870.31;;;6.88;65.41
28027;BME280;15344;52.342;-1.290;2023-02-27T00:58:15;101868.25;;;6.34;66.96
28027;BME280;15344;52.342;-1.290;2023-02-27T01:00:40;101866.04;;;7.34;65.30
28027;BME280;15344;52.342;-1.290;2023-02-27T01:03:06;101868.48;;;7.24;65.20
28027;BME280;15344;52.342;-1.290;2023-02-27T01:05:31;101868.73;;;6.79;68.33
28027;BME280;15344;52.342;-1.290;2023-02-27T01:07:57;101865.36;;;6.87;66.91
28027;BME280;15344;52.342;-1.290;2023-02-27T01:10:22;101858.30;;;7.40;66.85
28027;BME280;15344;52.342;-1.290;2023-02-27T01:12:48;101857.03;;;6.20;72.11
28027;BME280;15344;52.342;-1.290;2023-02-27T01:15:13;101852.50;;;6.93;67.92
28027;BME280;15344;52.342;-1.290;2023-02-27T01:17:39;101854.48;;;5.97;70.64
28027;BME280;15344;52.342;-1.290;2023-02-27T01:20:07;101856.75;;;7.59;67.14
28027;BME280;15344;52.342;-1.290;2023-02-27T01:22:31;101860.64;;;7.25;66.20
28027;BME280;15344;52.342;-1.290;2023-02-27T01:24:56;101861.57;;;7.53;67.14
28027;BME280;15344;52.342;-1.290;2023-02-27T01:27:21;101869.48;;;6.93;70.17
28027;BME280;15344;52.342;-1.290;2023-02-27T01:29:47;101862.51;;;7.90;65.63
28027;BME280;15344;52.342;-1.290;2023-02-27T01:32:12;101867.94;;;7.35;66.11
28027;BME280;15344;52.342;-1.290;2023-02-27T01:34:37;101857.44;;;8.02;63.49
28027;BME280;15344;52.342;-1.290;2023-02-27T01:37:03;101854.19;;;7.58;64.49
28027;BME280;15344;52.342;-1.290;2023-02-27T01:39:28;101856.65;;;7.38;65.31
28027;BME280;15344;52.342;-1.290;2023-02-27T01:41:54;101855.75;;;7.36;65.43
28027;BME280;15344;52.342;-1.290;2023-02-27T01:44:19;101854.44;;;6.58;68.23
28027;BME280;15344;52.342;-1.290;2023-02-27T01:46:45;101850.44;;;7.83;65.21
28027;BME280;15344;52.342;-1.290;2023-02-27T01:49:13;101842.42;;;8.01;64.86
28027;BME280;15344;52.342;-1.290;2023-02-27T01:51:38;101855.71;;;7.48;65.19
28027;BME280;15344;52.342;-1.290;2023-02-27T01:54:03;101852.71;;;6.94;67.68
28027;BME280;15344;52.342;-1.290;2023-02-27T01:56:28;101851.93;;;7.49;66.70
28027;BME280;15344;52.342;-1.290;2023-02-27T01:58:54;101859.34;;;7.34;67.32
28027;BME280;15344;52.342;-1.290;2023-02-27T02:01:18;101856.70;;;6.58;69.29
28027;BME280;15344;52.342;-1.290;2023-02-27T02:03:48;101848.33;;;7.32;68.35
28027;BME280;15344;52.342;-1.290;2023-02-27T02:06:10;101846.21;;;7.49;67.22
28027;BME280;15344;52.342;-1.290;2023-02-27T02:08:38;101840.63;;;7.36;68.83
28027;BME280;15344;52.342;-1.290;2023-02-27T02:11:00;101836.43;;;7.53;68.38
28027;BME280;15344;52.342;-1.290;2023-02-27T02:13:26;101836.50;;;7.91;67.16
28027;BME280;15344;52.342;-1.290;2023-02-27T02:16:01;101836.88;;;7.95;66.68
28027;BME280;15344;52.342;-1.290;2023-02-27T02:18:23;101830.72;;;7.58;68.02
28027;BME280;15344;52.342;-1.290;2023-02-27T02:28:07;101842.85;;;6.21;75.68
28027;BME280;15344;52.342;-1.290;2023-02-27T02:32:59;101835.99;;;7.94;69.80
28027;BME280;15344;52.342;-1.290;2023-02-27T02:40:15;101838.48;;;7.50;70.52
28027;BME280;15344;52.342;-1.290;2023-02-27T02:42:35;101837.36;;;8.34;67.99
28027;BME280;15344;52.342;-1.290;2023-02-27T02:45:02;101838.81;;;7.93;68.79
28027;BME280;15344;52.342;-1.290;2023-02-27T02:47:29;101840.14;;;7.16;70.75
28027;BME280;15344;52.342;-1.290;2023-02-27T02:49:54;101837.48;;;6.95;70.75
28027;BME280;15344;52.342;-1.290;2023-02-27T02:52:18;101837.59;;;6.97;71.32
28027;BME280;15344;52.342;-1.290;2023-02-27T02:54:42;101833.62;;;7.17;70.35
28027;BME280;15344;52.342;-1.290;2023-02-27T02:57:05;101827.96;;;7.53;71.32
28027;BME280;15344;52.342;-1.290;2023-02-27T02:59:32;101828.42;;;7.07;72.63
28027;BME280;15344;52.342;-1.290;2023-02-27T03:01:58;101828.81;;;7.28;72.80
28027;BME280;15344;52.342;-1.290;2023-02-27T03:04:24;101826.52;;;7.38;72.28
28027;BME280;15344;52.342;-1.290;2023-02-27T03:06:47;101825.91;;;7.45;72.01
28027;BME280;15344;52.342;-1.290;2023-02-27T03:09:15;101835.52;;;6.88;74.45
28027;BME280;15344;52.342;-1.290;2023-02-27T03:11:38;101836.15;;;6.71;77.85
28027;BME280;15344;52.342;-1.290;2023-02-27T03:14:05;101836.80;;;6.33;80.90
28027;BME280;15344;52.342;-1.290;2023-02-27T03:16:30;101833.97;;;6.88;79.75
28027;BME280;15344;52.342;-1.290;2023-02-27T03:18:57;101830.75;;;6.68;81.16
28027;BME280;15344;52.342;-1.290;2023-02-27T03:21:23;101829.92;;;6.14;85.33
28027;BME280;15344;52.342;-1.290;2023-02-27T03:23:45;101824.98;;;5.30;89.98
28027;BME280;15344;52.342;-1.290;2023-02-27T03:26:12;101829.25;;;6.49;84.01
28027;BME280;15344;52.342;-1.290;2023-02-27T03:28:39;101829.55;;;7.39;82.15
28027;BME280;15344;52.342;-1.290;2023-02-27T03:31:06;101829.62;;;6.85;83.95
28027;BME280;15344;52.342;-1.290;2023-02-27T03:33:30;101825.25;;;7.87;79.83
28027;BME280;15344;52.342;-1.290;2023-02-27T03:35:56;101825.70;;;7.72;75.62
28027;BME280;15344;52.342;-1.290;2023-02-27T03:38:22;101824.13;;;7.43;73.02
28027;BME280;15344;52.342;-1.290;2023-02-27T03:40:51;101819.36;;;7.69;68.76
28027;BME280;15344;52.342;-1.290;2023-02-27T03:43:16;101818.58;;;7.21;70.04
28027;BME280;15344;52.342;-1.290;2023-02-27T03:45:38;101822.81;;;7.76;70.33
28027;BME280;15344;52.342;-1.290;2023-02-27T03:48:00;101820.91;;;7.94;69.65
28027;BME280;15344;52.342;-1.290;2023-02-27T03:50:25;101816.97;;;8.51;68.76
28027;BME280;15344;52.342;-1.290;2023-02-27T03:52:51;101821.76;;;7.12;73.68
28027;BME280;15344;52.342;-1.290;2023-02-27T03:55:18;101819.93;;;7.79;72.86
28027;BME280;15344;52.342;-1.290;2023-02-27T03:57:43;101813.89;;;7.62;75.11
28027;BME280;15344;52.342;-1.290;2023-02-27T04:00:11;101821.64;;;6.50;81.56
28027;BME280;15344;52.342;-1.290;2023-02-27T04:02:34;101828.31;;;6.77;87.68
28027;BME280;15344;52.342;-1.290;2023-02-27T04:04:59;101831.41;;;5.97;94.62
28027;BME280;15344;52.342;-1.290;2023-02-27T04:07:29;101832.45;;;5.69;99.64
28027;BME280;15344;52.342;-1.290;2023-02-27T04:12:29;101830.90;;;6.29;99.05
28027;BME280;15344;52.342;-1.290;2023-02-27T04:14:56;101826.56;;;6.01;100.00
28027;BME280;15344;52.342;-1.290;2023-02-27T04:17:14;101828.32;;;5.86;100.00
28027;BME280;15344;52.342;-1.290;2023-02-27T04:19:45;101824.06;;;5.43;100.00
28027;BME280;15344;52.342;-1.290;2023-02-27T04:22:07;101820.34;;;6.10;100.00
28027;BME280;15344;52.342;-1.290;2023-02-27T04:24:33;101815.08;;;5.39;100.00
28027;BME280;15344;52.342;-1.290;2023-02-27T04:26:52;101815.04;;;5.72;100.00
28027;BME280;15344;52.342;-1.290;2023-02-27T04:29:17;101813.85;;;6.85;100.00
28027;BME280;15344;52.342;-1.290;2023-02-27T04:31:44;101805.86;;;7.49;96.17
28027;BME280;15344;52.342;-1.290;2023-02-27T04:34:10;101810.31;;;5.37;100.00
28027;BME280;15344;52.342;-1.290;2023-02-27T04:36:35;101812.24;;;5.83;100.00
28027;BME280;15344;52.342;-1.290;2023-02-27T04:39:02;101822.40;;;6.22;100.00
28027;BME280;15344;52.342;-1.290;2023-02-27T04:41:25;101827.26;;;6.53;100.00
28027;BME280;15344;52.342;-1.290;2023-02-27T04:43:49;101826.44;;;6.01;100.00
28027;BME280;15344;52.342;-1.290;2023-02-27T04:46:15;101821.18;;;7.25;96.48
28027;BME280;15344;52.342;-1.290;2023-02-27T04:48:47;101820.80;;;4.46;100.00
28027;BME280;15344;52.342;-1.290;2023-02-27T04:51:08;101813.27;;;5.51;100.00
28027;BME280;15344;52.342;-1.290;2023-02-27T04:53:33;101815.87;;;5.88;100.00
28027;BME280;15344;52.342;-1.290;2023-02-27T04:55:58;101826.95;;;6.08;100.00
28027;BME280;15344;52.342;-1.290;2023-02-27T04:58:23;101825.88;;;5.68;100.00
28027;BME280;15344;52.342;-1.290;2023-02-27T05:00:49;101829.01;;;5.22;100.00
28027;BME280;15344;52.342;-1.290;2023-02-27T05:03:14;101824.67;;;4.99;100.00
28027;BME280;15344;52.342;-1.290;2023-02-27T05:05:40;101819.74;;;4.91;100.00
28027;BME280;15344;52.342;-1.290;2023-02-27T05:08:07;101827.09;;;4.13;100.00
28027;BME280;15344;52.342;-1.290;2023-02-27T05:10:32;101820.87;;;5.00;100.00
28027;BME280;15344;52.342;-1.290;2023-02-27T05:12:57;101829.09;;;4.43;100.00
28027;BME280;15344;52.342;-1.290;2023-02-27T05:15:23;101830.07;;;4.77;100.00
28027;BME280;15344;52.342;-1.290;2023-02-27T05:17:48;101825.94;;;5.04;100.00
28027;BME280;15344;52.342;-1.290;2023-02-27T05:20:11;101823.30;;;4.26;100.00
28027;BME280;15344;52.342;-1.290;2023-02-27T05:22:44;101820.03;;;5.17;100.00
28027;BME280;15344;52.342;-1.290;2023-02-27T05:25:08;101822.17;;;5.17;100.00
28027;BME280;15344;52.342;-1.290;2023-02-27T05:27:34;101823.26;;;4.72;100.00
28027;BME280;15344;52.342;-1.290;2023-02-27T05:29:57;101820.02;;;5.41;100.00
28027;BME280;15344;52.342;-1.290;2023-02-27T05:32:26;101817.37;;;5.10;100.00
28027;BME280;15344;52.342;-1.290;2023-02-27T05:34:50;101820.88;;;4.85;100.00
28027;BME280;15344;52.342;-1.290;2023-02-27T05:37:12;101823.38;;;4.53;100.00
28027;BME280;15344;52.342;-1.290;2023-02-27T05:39:36;101819.63;;;4.71;100.00
28027;BME280;15344;52.342;-1.290;2023-02-27T05:42:04;101823.26;;;4.91;100.00
28027;BME280;15344;52.342;-1.290;2023-02-27T05:44:29;101821.62;;;4.83;100.00
28027;BME280;15344;52.342;-1.290;2023-02-27T05:46:55;101820.47;;;4.98;100.00
28027;BME280;15344;52.342;-1.290;2023-02-27T05:49:19;101818.60;;;5.17;100.00
28027;BME280;15344;52.342;-1.290;2023-02-27T05:51:45;101824.15;;;4.94;100.00
28027;BME280;15344;52.342;-1.290;2023-02-27T05:54:11;101824.83;;;5.93;100.00
28027;BME280;15344;52.342;-1.290;2023-02-27T05:56:36;101831.59;;;5.00;100.00
28027;BME280;15344;52.342;-1.290;2023-02-27T05:59:03;101832.14;;;5.51;100.00
28027;BME280;15344;52.342;-1.290;2023-02-27T06:01:25;101834.76;;;5.73;100.00
28027;BME280;15344;52.342;-1.290;2023-02-27T06:03:50;101835.41;;;5.47;100.00
28027;BME280;15344;52.342;-1.290;2023-02-27T06:06:17;101837.73;;;5.66;100.00
28027;BME280;15344;52.342;-1.290;2023-02-27T06:08:42;101834.71;;;6.14;100.00
28027;BME280;15344;52.342;-1.290;2023-02-27T06:11:07;101832.25;;;5.47;100.00
28027;BME280;15344;52.342;-1.290;2023-02-27T06:13:32;101834.14;;;5.02;100.00
28027;BME280;15344;52.342;-1.290;2023-02-27T06:15:58;101834.15;;;5.09;100.00
28027;BME280;15344;52.342;-1.290;2023-02-27T06:18:23;101835.04;;;6.11;100.00
28027;BME280;15344;52.342;-1.290;2023-02-27T06:20:49;101830.98;;;5.48;100.00
28027;BME280;15344;52.342;-1.290;2023-02-27T06:23:14;101833.87;;;6.00;100.00
28027;BME280;15344;52.342;-1.290;2023-02-27T06:25:40;101835.95;;;5.63;100.00
28027;BME280;15344;52.342;-1.290;2023-02-27T06:28:05;101830.18;;;5.56;100.00
28027;BME280;15344;52.342;-1.290;2023-02-27T06:30:30;101837.24;;;5.67;100.00
28027;BME280;15344;52.342;-1.290;2023-02-27T06:32:56;101843.42;;;6.04;100.00
28027;BME280;15344;52.342;-1.290;2023-02-27T06:35:22;101841.94;;;5.46;100.00
28027;BME280;15344;52.342;-1.290;2023-02-27T06:37:47;101841.56;;;5.82;100.00
28027;BME280;15344;52.342;-1.290;2023-02-27T06:40:13;101848.62;;;5.57;100.00
28027;BME280;15344;52.342;-1.290;2023-02-27T06:42:39;101848.83;;;5.42;100.00
28027;BME280;15344;52.342;-1.290;2023-02-27T06:45:05;101850.40;;;4.71;100.00
28027;BME280;15344;52.342;-1.290;2023-02-27T06:47:29;101857.62;;;4.71;100.00
28027;BME280;15344;52.342;-1.290;2023-02-27T06:49:55;101853.36;;;5.48;100.00
28027;BME280;15344;52.342;-1.290;2023-02-27T06:52:20;101853.90;;;5.12;100.00
28027;BME280;15344;52.342;-1.290;2023-02-27T06:54:46;101857.80;;;4.91;100.00
28027;BME280;15344;52.342;-1.290;2023-02-27T06:57:11;101854.43;;;4.56;100.00
28027;BME280;15344;52.342;-1.290;2023-02-27T06:59:37;101856.16;;;4.24;100.00
28027;BME280;15344;52.342;-1.290;2023-02-27T07:02:02;101854.37;;;5.04;100.00
28027;BME280;15344;52.342;-1.290;2023-02-27T07:04:28;101861.82;;;4.93;100.00
28027;BME280;15344;52.342;-1.290;2023-02-27T07:06:54;101868.09;;;4.05;100.00
28027;BME280;15344;52.342;-1.290;2023-02-27T07:09:19;101873.01;;;4.44;100.00
28027;BME280;15344;52.342;-1.290;2023-02-27T07:11:45;101873.57;;;3.79;100.00
28027;BME280;15344;52.342;-1.290;2023-02-27T07:14:11;101881.59;;;3.98;100.00
28027;BME280;15344;52.342;-1.290;2023-02-27T07:16:36;101882.40;;;3.62;100.00
28027;BME280;15344;52.342;-1.290;2023-02-27T07:19:01;101886.38;;;4.46;100.00
28027;BME280;15344;52.342;-1.290;2023-02-27T07:21:27;101887.97;;;5.29;100.00
28027;BME280;15344;52.342;-1.290;2023-02-27T07:23:52;101890.79;;;4.08;100.00
28027;BME280;15344;52.342;-1.290;2023-02-27T07:26:18;101888.96;;;5.07;100.00
28027;BME280;15344;52.342;-1.290;2023-02-27T07:28:44;101888.55;;;5.71;100.00
28027;BME280;15344;52.342;-1.290;2023-02-27T07:31:09;101886.45;;;5.06;100.00
28027;BME280;15344;52.342;-1.290;2023-02-27T07:33:35;101878.25;;;4.24;100.00
28027;BME280;15344;52.342;-1.290;2023-02-27T07:36:00;101881.82;;;5.03;100.00
28027;BME280;15344;52.342;-1.290;2023-02-27T07:38:25;101887.66;;;4.16;100.00
28027;BME280;15344;52.342;-1.290;2023-02-27T07:40:52;101884.23;;;4.85;100.00
28027;BME280;15344;52.342;-1.290;2023-02-27T07:43:16;101896.31;;;5.16;100.00
28027;BME280;15344;52.342;-1.290;2023-02-27T07:45:42;101898.33;;;4.22;100.00
28027;BME280;15344;52.342;-1.290;2023-02-27T07:48:07;101901.15;;;4.43;100.00
28027;BME280;15344;52.342;-1.290;2023-02-27T07:50:33;101902.12;;;4.51;100.00
28027;BME280;15344;52.342;-1.290;2023-02-27T07:52:58;101906.58;;;3.29;100.00
28027;BME280;15344;52.342;-1.290;2023-02-27T07:55:24;101904.38;;;4.97;100.00
28027;BME280;15344;52.342;-1.290;2023-02-27T07:57:49;101901.61;;;3.72;100.00
28027;BME280;15344;52.342;-1.290;2023-02-27T08:00:16;101905.64;;;4.10;100.00
28027;BME280;15344;52.342;-1.290;2023-02-27T08:02:40;101907.33;;;3.95;100.00
28027;BME280;15344;52.342;-1.290;2023-02-27T08:05:06;101908.78;;;4.29;100.00
28027;BME280;15344;52.342;-1.290;2023-02-27T08:07:30;101910.44;;;4.76;100.00
28027;BME280;15344;52.342;-1.290;2023-02-27T08:09:56;101909.62;;;4.37;100.00
28027;BME280;15344;52.342;-1.290;2023-02-27T08:12:21;101910.57;;;3.34;100.00
28027;BME280;15344;52.342;-1.290;2023-02-27T08:14:46;101911.45;;;4.60;100.00
28027;BME280;15344;52.342;-1.290;2023-02-27T08:17:13;101915.21;;;4.52;100.00
28027;BME280;15344;52.342;-1.290;2023-02-27T08:19:38;101920.80;;;4.60;100.00
28027;BME280;15344;52.342;-1.290;2023-02-27T08:22:03;101924.92;;;4.36;100.00
28027;BME280;15344;52.342;-1.290;2023-02-27T08:24:29;101923.84;;;4.13;100.00
28027;BME280;15344;52.342;-1.290;2023-02-27T08:26:54;101929.66;;;5.89;100.00
28027;BME280;15344;52.342;-1.290;2023-02-27T08:29:19;101929.85;;;4.81;100.00
28027;BME280;15344;52.342;-1.290;2023-02-27T08:31:44;101927.07;;;3.89;100.00
28027;BME280;15344;52.342;-1.290;2023-02-27T08:34:10;101928.65;;;5.25;100.00
28027;BME280;15344;52.342;-1.290;2023-02-27T08:36:35;101924.44;;;5.48;100.00
28027;BME280;15344;52.342;-1.290;2023-02-27T08:39:00;101929.49;;;6.21;100.00
28027;BME280;15344;52.342;-1.290;2023-02-27T08:41:26;101930.59;;;4.96;100.00
28027;BME280;15344;52.342;-1.290;2023-02-27T08:43:51;101925.99;;;5.72;100.00
28027;BME280;15344;52.342;-1.290;2023-02-27T08:46:17;101923.21;;;6.40;100.00
28027;BME280;15344;52.342;-1.290;2023-02-27T08:48:42;101922.42;;;5.53;100.00
28027;BME280;15344;52.342;-1.290;2023-02-27T08:51:07;101918.81;;;6.24;100.00
28027;BME280;15344;52.342;-1.290;2023-02-27T08:53:33;101916.04;;;6.03;100.00
28027;BME280;15344;52.342;-1.290;2023-02-27T08:55:58;101913.17;;;5.78;100.00
28027;BME280;15344;52.342;-1.290;2023-02-27T08:58:23;101910.20;;;6.65;100.00
28027;BME280;15344;52.342;-1.290;2023-02-27T09:00:49;101915.32;;;5.52;100.00
28027;BME280;15344;52.342;-1.290;2023-02-27T09:03:14;101918.86;;;6.16;100.00
28027;BME280;15344;52.342;-1.290;2023-02-27T09:05:40;101910.80;;;6.80;100.00
28027;BME280;15344;52.342;-1.290;2023-02-27T09:08:05;101907.96;;;5.10;100.00
28027;BME280;15344;52.342;-1.290;2023-02-27T09:10:31;101911.81;;;5.38;100.00
28027;BME280;15344;52.342;-1.290;2023-02-27T09:12:55;101912.27;;;5.84;100.00
28027;BME280;15344;52.342;-1.290;2023-02-27T09:15:21;101911.07;;;5.92;100.00
28027;BME280;15344;52.342;-1.290;2023-02-27T09:17:46;101919.12;;;6.64;100.00
28027;BME280;15344;52.342;-1.290;2023-02-27T09:20:12;101922.00;;;6.57;100.00
28027;BME280;15344;52.342;-1.290;2023-02-27T09:22:38;101921.37;;;5.63;100.00
28027;BME280;15344;52.342;-1.290;2023-02-27T09:25:03;101927.62;;;6.80;100.00
28027;BME280;15344;52.342;-1.290;2023-02-27T09:27:29;101923.94;;;7.70;100.00
28027;BME280;15344;52.342;-1.290;2023-02-27T09:29:54;101923.10;;;6.22;100.00
28027;BME280;15344;52.342;-1.290;2023-02-27T09:32:19;101925.97;;;7.10;100.00
28027;BME280;15344;52.342;-1.290;2023-02-27T09:34:44;101932.56;;;7.22;100.00
28027;BME280;15344;52.342;-1.290;2023-02-27T09:37:10;101946.83;;;7.58;100.00
28027;BME280;15344;52.342;-1.290;2023-02-27T09:39:36;101942.26;;;6.01;100.00
28027;BME280;15344;52.342;-1.290;2023-02-27T09:42:03;101952.38;;;7.38;100.00
28027;BME280;15344;52.342;-1.290;2023-02-27T09:44:34;101953.59;;;5.88;100.00
28027;BME280;15344;52.342;-1.290;2023-02-27T09:46:53;101954.47;;;6.35;100.00
28027;BME280;15344;52.342;-1.290;2023-02-27T09:49:20;101954.91;;;6.70;100.00
28027;BME280;15344;52.342;-1.290;2023-02-27T09:51:43;101950.49;;;6.16;100.00
28027;BME280;15344;52.342;-1.290;2023-02-27T09:54:11;101953.21;;;5.10;100.00
28027;BME280;15344;52.342;-1.290;2023-02-27T09:56:38;101952.16;;;5.58;100.00
28027;BME280;15344;52.342;-1.290;2023-02-27T09:59:04;101954.93;;;5.66;100.00
28027;BME280;15344;52.342;-1.290;2023-02-27T10:01:28;101960.65;;;5.93;100.00
28027;BME280;15344;52.342;-1.290;2023-02-27T10:06:23;101949.22;;;5.90;100.00
28027;BME280;15344;52.342;-1.290;2023-02-27T10:08:46;101951.25;;;5.71;100.00
28027;BME280;15344;52.342;-1.290;2023-02-27T10:11:08;101950.56;;;6.46;100.00
28027;BME280;15344;52.342;-1.290;2023-02-27T10:13:42;101951.44;;;5.86;100.00
28027;BME280;15344;52.342;-1.290;2023-02-27T10:15:59;101950.67;;;5.89;100.00
28027;BME280;15344;52.342;-1.290;2023-02-27T10:18:27;101953.65;;;7.67;100.00
28027;BME280;15344;52.342;-1.290;2023-02-27T10:20:52;101950.12;;;7.65;100.00
28027;BME280;15344;52.342;-1.290;2023-02-27T10:23:18;101958.32;;;7.28;100.00
28027;BME280;15344;52.342;-1.290;2023-02-27T10:25:44;101946.19;;;6.53;100.00
28027;BME280;15344;52.342;-1.290;2023-02-27T10:28:11;101948.85;;;6.88;100.00
28027;BME280;15344;52.342;-1.290;2023-02-27T10:30:30;101949.34;;;6.95;100.00
28027;BME280;15344;52.342;-1.290;2023-02-27T10:33:05;101950.00;;;6.71;100.00
28027;BME280;15344;52.342;-1.290;2023-02-27T10:35:27;101950.85;;;5.97;100.00
28027;BME280;15344;52.342;-1.290;2023-02-27T10:37:49;101955.47;;;6.22;100.00
28027;BME280;15344;52.342;-1.290;2023-02-27T10:40:14;101953.05;;;7.05;100.00
28027;BME280;15344;52.342;-1.290;2023-02-27T10:42:38;101951.36;;;6.70;100.00
28027;BME280;15344;52.342;-1.290;2023-02-27T10:45:03;101948.99;;;6.68;100.00
28027;BME280;15344;52.342;-1.290;2023-02-27T10:47:28;101947.61;;;7.52;100.00
28027;BME280;15344;52.342;-1.290;2023-02-27T10:49:54;101952.00;;;6.90;100.00
28027;BME280;15344;52.342;-1.290;2023-02-27T10:52:19;101948.13;;;8.55;100.00
28027;BME280;15344;52.342;-1.290;2023-02-27T10:54:46;101946.83;;;7.25;100.00
28027;BME280;15344;52.342;-1.290;2023-02-27T10:57:18;101943.98;;;7.50;100.00
28027;BME280;15344;52.342;-1.290;2023-02-27T10:59:38;101947.27;;;7.69;100.00
28027;BME280;15344;52.342;-1.290;2023-02-27T11:02:03;101942.86;;;8.27;100.00
28027;BME280;15344;52.342;-1.290;2023-02-27T11:04:32;101953.43;;;7.76;100.00
28027;BME280;15344;52.342;-1.290;2023-02-27T11:06:53;101956.53;;;6.83;100.00
28027;BME280;15344;52.342;-1.290;2023-02-27T11:09:20;101964.89;;;7.35;100.00
28027;BME280;15344;52.342;-1.290;2023-02-27T11:11:43;101971.34;;;6.83;100.00
28027;BME280;15344;52.342;-1.290;2023-02-27T11:14:15;101968.07;;;6.76;100.00
28027;BME280;15344;52.342;-1.290;2023-02-27T11:18:59;101971.46;;;4.99;100.00
28027;BME280;15344;52.342;-1.290;2023-02-27T11:21:26;101975.80;;;6.75;100.00
28027;BME280;15344;52.342;-1.290;2023-02-27T11:23:54;101973.08;;;7.23;100.00
28027;BME280;15344;52.342;-1.290;2023-02-27T11:26:19;101967.38;;;6.26;100.00
28027;BME280;15344;52.342;-1.290;2023-02-27T11:28:42;101962.04;;;7.67;100.00
28027;BME280;15344;52.342;-1.290;2023-02-27T11:31:14;101953.98;;;7.67;100.00
28027;BME280;15344;52.342;-1.290;2023-02-27T11:33:37;101952.25;;;7.41;100.00
28027;BME280;15344;52.342;-1.290;2023-02-27T11:35:58;101951.39;;;5.87;100.00
28027;BME280;15344;52.342;-1.290;2023-02-27T11:38:26;101953.64;;;6.40;100.00
28027;BME280;15344;52.342;-1.290;2023-02-27T11:40:51;101952.84;;;7.34;100.00
28027;BME280;15344;52.342;-1.290;2023-02-27T11:43:17;101950.99;;;6.06;100.00
28027;BME280;15344;52.342;-1.290;2023-02-27T11:45:40;101960.63;;;7.36;100.00
28027;BME280;15344;52.342;-1.290;2023-02-27T11:48:09;101955.97;;;6.17;100.00
28027;BME280;15344;52.342;-1.290;2023-02-27T11:50:40;101953.81;;;6.74;100.00
28027;BME280;15344;52.342;-1.290;2023-02-27T11:53:04;101950.51;;;6.53;100.00
28027;BME280;15344;52.342;-1.290;2023-02-27T11:55:23;101946.51;;;7.73;100.00
28027;BME280;15344;52.342;-1.290;2023-02-27T11:57:51;101945.26;;;7.63;100.00
28027;BME280;15344;52.342;-1.290;2023-02-27T12:00:17;101945.10;;;6.10;100.00
28027;BME280;15344;52.342;-1.290;2023-02-27T12:02:44;101942.04;;;6.89;100.00
28027;BME280;15344;52.342;-1.290;2023-02-27T12:05:11;101943.60;;;6.74;100.00
28027;BME280;15344;52.342;-1.290;2023-02-27T12:07:33;101938.48;;;6.40;100.00
28027;BME280;15344;52.342;-1.290;2023-02-27T12:10:01;101940.80;;;6.35;100.00
28027;BME280;15344;52.342;-1.290;2023-02-27T12:12:23;101932.53;;;6.57;100.00
28027;BME280;15344;52.342;-1.290;2023-02-27T12:14:51;101927.83;;;7.57;100.00
28027;BME280;15344;52.342;-1.290;2023-02-27T12:17:17;101923.60;;;6.11;100.00
28027;BME280;15344;52.342;-1.290;2023-02-27T12:19:41;101923.36;;;7.39;100.00
28027;BME280;15344;52.342;-1.290;2023-02-27T12:22:05;101924.04;;;7.07;100.00
28027;BME280;15344;52.342;-1.290;2023-02-27T12:24:30;101924.55;;;7.24;100.00
28027;BME280;15344;52.342;-1.290;2023-02-27T12:26:59;101916.99;;;8.26;100.00
28027;BME280;15344;52.342;-1.290;2023-02-27T12:29:27;101917.31;;;8.28;100.00
28027;BME280;15344;52.342;-1.290;2023-02-27T12:31:48;101912.61;;;9.76;99.83
28027;BME280;15344;52.342;-1.290;2023-02-27T12:34:18;101913.34;;;9.19;99.04
28027;BME280;15344;52.342;-1.290;2023-02-27T12:36:34;101913.70;;;9.75;95.35
28027;BME280;15344;52.342;-1.290;2023-02-27T12:39:00;101915.65;;;9.14;97.54
28027;BME280;15344;52.342;-1.290;2023-02-27T12:41:33;101912.47;;;7.27;100.00
28027;BME280;15344;52.342;-1.290;2023-02-27T12:43:59;101909.85;;;8.17;100.00
28027;BME280;15344;52.342;-1.290;2023-02-27T12:46:25;101909.31;;;8.49;100.00
28027;BME280;15344;52.342;-1.290;2023-02-27T12:48:51;101904.62;;;8.23;100.00
28027;BME280;15344;52.342;-1.290;2023-02-27T12:51:14;101903.46;;;8.55;99.51
28027;BME280;15344;52.342;-1.290;2023-02-27T12:53:46;101897.98;;;8.77;98.41